Hauptseite
METAR-TAF:

METAR-TAF

Flughäfen :

Iguaçu, Argentinien

Breite: 25-44S, Länge: 054-28W, Höhe: 270 m

Beobachtung

Neuester Wetterbericht von vor 29 Minuten, um 15:00 UTC
Wind 4 kt aus Nord
Temperatur 29°C
Luftfeuchtigkeit 62%
Luftdruck 1017 hPa
Sichtweite 10 km oder mehr
keine Wolken unter 1500 m und keine Kumulonimbus oder Gewitterwolken

METAR: SARI 211500Z 36004KT CAVOK 29/21 Q1017

Zeit: 12:29 (15:29 UTC)

Prognose

Neuester Wetterbericht von vor 4 Stunden und 29 Minuten, um 11:00 UTC
Gültige Prognose vom 21 um 12 UTC bis 22 um 12 UTC
Wind 5 kt aus Nordost
Sichtweite 10 km oder mehr
keine Wolken unter 1500 m und keine Kumulonimbus oder Gewitterwolken
Wahrscheinlichkeit 40%
vom 22 um 09 UTC bis 22 um 11 UTC
Sichtweite: 5000 m
feuchter Dunst

TAF: SARI 211100Z 2112/2212 05005KT CAVOK TX32/2118Z TN19/2209Z PROB40 2209/2211 5000 BR NSC

Wetterbeobachtungen und Prognosen von mehr als 4000 Flughäfen (METAR und TAF Bericht).

Die verfügbaren Stationen werden durch gelbe und rote Markierungen auf der Karte dargestellt.

Führen Sie die Maus auf sie, um den Namen der Station zu sehen.

Darauf klicken, um die Beobachtung von Wetterbeobachtungen und Prognosen zu sehen.

Um die Karte zu ändern : klicken Sie auf den grünen Tasten mit einem schwarzen Kreuz Zum Vergrößern, auf den grünen Button mit einem Gedankenstrich zu verkleinern, oder auf die grünen Pfeile für benachbarte Karten.


METAR-TAF: